Time;durP1;ratioP1;P1;durP2;ratioP2;P2;SDS_P1;SDS_P2;PMS_P1;PMS_P2;Temp;Humidity;BMP_temperature;BMP_pressure;BME280_temperature;BME280_humidity;BME280_pressure;Samples;Min_cycle;Max_cycle;Signal;HPM_P1;HPM_P2
2023/08/31 00:00:54;;;;;;;0.50;0.50;;;;;;;;;;10426406;28;20708;-73
2023/08/31 00:05:56;;;;;;;0.40;0.40;;;;;;;;;;10426719;28;20294;-71
2023/08/31 00:10:58;;;;;;;10.60;0.57;;;;;;;;;;10429927;28;20396;-69
2023/08/31 00:15:59;;;;;;;0.38;0.38;;;;;;;;;;10414978;28;20230;-70
2023/08/31 00:21:00;;;;;;;0.30;0.30;;;;;;;;;;10407295;28;20222;-73
2023/08/31 00:26:02;;;;;;;0.30;0.30;;;;;;;;;;10416806;28;20231;-71
2023/08/31 00:31:03;;;;;;;0.52;0.52;;;;;;;;;;10422726;28;20405;-72
2023/08/31 00:36:04;;;;;;;0.50;0.50;;;;;;;;;;10424084;28;20222;-70
2023/08/31 00:41:06;;;;;;;0.55;0.55;;;;;;;;;;10403987;28;20215;-69
2023/08/31 00:46:07;;;;;;;0.65;0.65;;;;;;;;;;10419015;28;20238;-71
2023/08/31 00:51:10;;;;;;;0.57;0.50;;;;;;;;;;10423438;28;20558;-72
2023/08/31 00:56:13;;;;;;;0.70;0.63;;;;;;;;;;10407521;28;20563;-70
2023/08/31 01:01:31;;;;;;;0.75;0.60;;;;;;;;;;10422597;28;20686;-73
2023/08/31 01:06:46;;;;;;;0.60;0.60;;;;;;;;;;10424385;28;20253;-71
2023/08/31 01:11:56;;;;;;;0.70;0.70;;;;;;;;;;10422489;28;20226;-70
2023/08/31 01:16:59;;;;;;;1.17;0.75;;;;;;;;;;10424480;28;20631;-69
2023/08/31 01:22:03;;;;;;;0.63;0.63;;;;;;;;;;10422031;28;20210;-70
2023/08/31 01:27:05;;;;;;;0.50;0.50;;;;;;;;;;10437178;28;20702;-72
2023/08/31 01:32:07;;;;;;;0.60;0.60;;;;;;;;;;10424301;28;20212;-73
2023/08/31 01:37:13;;;;;;;0.63;0.63;;;;;;;;;;10424829;28;20276;-71
2023/08/31 01:42:16;;;;;;;0.63;0.50;;;;;;;;;;10424241;28;20245;-75
2023/08/31 01:47:19;;;;;;;1.17;0.45;;;;;;;;;;10422362;28;20242;-70
2023/08/31 01:52:20;;;;;;;0.63;0.63;;;;;;;;;;10437425;28;20632;-69
2023/08/31 01:57:21;;;;;;;0.55;0.55;;;;;;;;;;10420624;28;20289;-73
2023/08/31 02:02:40;;;;;;;0.57;0.57;;;;;;;;;;10426795;28;20241;-69
2023/08/31 02:07:41;;;;;;;1.33;0.75;;;;;;;;;;10410829;28;20226;-71
2023/08/31 02:12:42;;;;;;;0.68;0.68;;;;;;;;;;10418829;28;20238;-72
2023/08/31 02:17:43;;;;;;;0.82;0.82;;;;;;;;;;10422395;28;20624;-69
2023/08/31 02:22:44;;;;;;;1.20;1.20;;;;;;;;;;10419655;28;20210;-72
2023/08/31 02:27:46;;;;;;;0.98;0.98;;;;;;;;;;10421453;28;20647;-68
2023/08/31 02:32:47;;;;;;;1.55;1.10;;;;;;;;;;10405186;28;20202;-71
2023/08/31 02:37:49;;;;;;;1.42;1.33;;;;;;;;;;10418806;28;20218;-72
2023/08/31 02:42:55;;;;;;;1.42;1.33;;;;;;;;;;10420187;28;20215;-70
2023/08/31 02:47:56;;;;;;;1.40;1.30;;;;;;;;;;10419366;28;20238;-70
2023/08/31 02:52:58;;;;;;;1.80;1.80;;;;;;;;;;10437885;28;20226;-71
2023/08/31 02:57:59;;;;;;;1.40;1.27;;;;;;;;;;10420908;28;20215;-70
2023/08/31 03:03:01;;;;;;;1.35;1.33;;;;;;;;;;10420953;28;20290;-72
2023/08/31 03:08:03;;;;;;;2.10;2.00;;;;;;;;;;10425268;28;20211;-70
2023/08/31 03:13:04;;;;;;;1.80;1.70;;;;;;;;;;10434632;28;20200;-69
2023/08/31 03:18:05;;;;;;;3.03;2.47;;;;;;;;;;10403204;28;20317;-69
2023/08/31 03:23:06;;;;;;;2.60;2.00;;;;;;;;;;10419638;28;20208;-71
2023/08/31 03:28:08;;;;;;;1.83;1.80;;;;;;;;;;10425434;28;20767;-70
2023/08/31 03:33:09;;;;;;;1.95;1.85;;;;;;;;;;10429162;28;20697;-69
2023/08/31 03:38:10;;;;;;;1.63;1.63;;;;;;;;;;10426738;28;20214;-70
2023/08/31 03:43:12;;;;;;;3.00;1.80;;;;;;;;;;10407465;28;20314;-69
2023/08/31 03:48:14;;;;;;;2.38;2.28;;;;;;;;;;10424875;28;20341;-70
2023/08/31 03:53:15;;;;;;;3.85;2.15;;;;;;;;;;10417611;28;20292;-71
2023/08/31 03:58:16;;;;;;;2.15;1.83;;;;;;;;;;10411436;28;20217;-69
2023/08/31 04:03:21;;;;;;;2.15;2.08;;;;;;;;;;10423330;28;20222;-68
2023/08/31 04:08:23;;;;;;;2.17;1.95;;;;;;;;;;10408783;28;20221;-69
2023/08/31 04:13:24;;;;;;;3.25;1.73;;;;;;;;;;10423854;28;20203;-69
2023/08/31 04:18:25;;;;;;;2.63;2.42;;;;;;;;;;10422614;28;20261;-74
2023/08/31 04:23:26;;;;;;;3.05;2.45;;;;;;;;;;10423231;28;20210;-72
2023/08/31 04:28:27;;;;;;;2.13;2.00;;;;;;;;;;10426171;28;20222;-72
2023/08/31 04:33:28;;;;;;;4.90;2.72;;;;;;;;;;10406470;28;20214;-69
2023/08/31 04:38:29;;;;;;;6.78;2.45;;;;;;;;;;10423439;28;20231;-71
2023/08/31 04:43:31;;;;;;;3.00;2.80;;;;;;;;;;10421705;28;20298;-69
2023/08/31 04:48:33;;;;;;;2.45;2.35;;;;;;;;;;10424934;28;20568;-70
2023/08/31 04:53:34;;;;;;;2.00;1.90;;;;;;;;;;10421105;28;20241;-71
2023/08/31 04:58:35;;;;;;;2.88;2.22;;;;;;;;;;10407365;28;20652;-72
2023/08/31 05:03:36;;;;;;;2.55;2.42;;;;;;;;;;10429566;28;20709;-68
2023/08/31 05:08:38;;;;;;;2.25;1.85;;;;;;;;;;10430160;28;20714;-68
2023/08/31 05:13:41;;;;;;;2.13;1.90;;;;;;;;;;10424024;28;20219;-69
2023/08/31 05:18:43;;;;;;;2.70;1.85;;;;;;;;;;10423041;28;20215;-73
2023/08/31 05:23:44;;;;;;;2.45;2.28;;;;;;;;;;10422224;28;20743;-70
2023/08/31 05:28:45;;;;;;;6.55;2.72;;;;;;;;;;10421595;28;20639;-69
2023/08/31 05:33:46;;;;;;;3.38;3.08;;;;;;;;;;10422329;28;20711;-71
2023/08/31 05:38:47;;;;;;;3.65;2.47;;;;;;;;;;10418928;28;20237;-69
2023/08/31 05:43:48;;;;;;;2.75;2.65;;;;;;;;;;10420828;28;20207;-68
2023/08/31 05:48:49;;;;;;;4.88;2.45;;;;;;;;;;10421660;28;20593;-68
2023/08/31 05:53:50;;;;;;;3.28;2.97;;;;;;;;;;10419227;28;20202;-71
2023/08/31 05:58:54;;;;;;;3.90;2.20;;;;;;;;;;10420172;28;20245;-72
2023/08/31 06:03:55;;;;;;;3.08;2.67;;;;;;;;;;10424864;28;20212;-69
2023/08/31 06:08:57;;;;;;;2.88;2.20;;;;;;;;;;10421887;28;20240;-71
2023/08/31 06:13:59;;;;;;;2.38;2.15;;;;;;;;;;10410113;28;20611;-71
2023/08/31 06:19:00;;;;;;;4.03;2.38;;;;;;;;;;10421596;28;20255;-70
2023/08/31 06:24:01;;;;;;;3.13;2.70;;;;;;;;;;10419936;28;20265;-69
2023/08/31 06:29:03;;;;;;;3.22;2.40;;;;;;;;;;10416076;28;20261;-69
2023/08/31 06:34:04;;;;;;;3.15;2.33;;;;;;;;;;10423424;28;20593;-71
2023/08/31 06:39:06;;;;;;;3.92;1.90;;;;;;;;;;10418902;28;20647;-68
2023/08/31 06:44:07;;;;;;;4.38;2.45;;;;;;;;;;10417974;28;20715;-70
2023/08/31 06:49:09;;;;;;;7.30;1.60;;;;;;;;;;10422100;28;20752;-69
2023/08/31 06:54:10;;;;;;;2.83;1.80;;;;;;;;;;10408559;28;20203;-72
2023/08/31 06:59:11;;;;;;;2.03;1.92;;;;;;;;;;10404589;28;20250;-69
2023/08/31 07:04:12;;;;;;;1.60;1.50;;;;;;;;;;10435833;28;20234;-70
2023/08/31 07:09:14;;;;;;;1.60;1.45;;;;;;;;;;10429042;28;20302;-69
2023/08/31 07:14:15;;;;;;;4.47;1.70;;;;;;;;;;10429822;28;20761;-71
2023/08/31 07:19:16;;;;;;;1.73;1.63;;;;;;;;;;10418065;28;20307;-69
2023/08/31 07:24:17;;;;;;;1.15;1.13;;;;;;;;;;10409894;28;20776;-71
2023/08/31 07:29:18;;;;;;;1.83;1.73;;;;;;;;;;10428114;28;20604;-76
2023/08/31 07:34:20;;;;;;;2.25;1.98;;;;;;;;;;10442884;28;20225;-71
2023/08/31 07:39:21;;;;;;;2.95;1.30;;;;;;;;;;10428774;28;20230;-69
2023/08/31 07:44:24;;;;;;;1.00;1.00;;;;;;;;;;10427501;28;20305;-70
2023/08/31 07:49:25;;;;;;;1.83;0.93;;;;;;;;;;10425941;28;20230;-71
2023/08/31 07:54:26;;;;;;;0.90;0.90;;;;;;;;;;10426532;28;20219;-73
2023/08/31 07:59:27;;;;;;;1.27;1.27;;;;;;;;;;10421877;28;20273;-69
2023/08/31 08:04:29;;;;;;;3.50;1.30;;;;;;;;;;10427525;28;20237;-70
2023/08/31 08:09:30;;;;;;;1.65;1.00;;;;;;;;;;10441816;28;20436;-71
2023/08/31 08:14:34;;;;;;;1.10;1.10;;;;;;;;;;10426292;28;20344;-68
2023/08/31 08:19:35;;;;;;;1.33;1.23;;;;;;;;;;10425329;28;20215;-70
2023/08/31 08:24:36;;;;;;;0.93;0.93;;;;;;;;;;10425368;28;20223;-69
2023/08/31 08:29:38;;;;;;;3.70;1.50;;;;;;;;;;10426143;28;20218;-68
2023/08/31 08:34:39;;;;;;;1.40;1.38;;;;;;;;;;10425265;28;20219;-69
2023/08/31 08:39:40;;;;;;;1.45;1.45;;;;;;;;;;10423114;28;20409;-70
2023/08/31 08:44:42;;;;;;;1.27;1.27;;;;;;;;;;10424565;28;20694;-72
2023/08/31 08:49:44;;;;;;;2.05;1.50;;;;;;;;;;10425559;28;20221;-72
2023/08/31 08:54:45;;;;;;;1.40;1.40;;;;;;;;;;10430835;28;20210;-70
2023/08/31 08:59:46;;;;;;;2.53;1.30;;;;;;;;;;10415021;28;20414;-72
2023/08/31 09:04:48;;;;;;;1.40;1.35;;;;;;;;;;10429715;28;20685;-69
2023/08/31 09:09:53;;;;;;;0.90;0.90;;;;;;;;;;10428029;28;20307;-69
2023/08/31 09:15:04;;;;;;;0.60;0.60;;;;;;;;;;10422429;28;20487;-71
2023/08/31 09:20:06;;;;;;;0.80;0.80;;;;;;;;;;10431418;28;20300;-72
2023/08/31 09:25:09;;;;;;;0.52;0.52;;;;;;;;;;10422697;28;20185;-71
2023/08/31 09:30:10;;;;;;;0.50;0.50;;;;;;;;;;10430578;28;20215;-72
2023/08/31 09:35:12;;;;;;;1.63;0.40;;;;;;;;;;10422449;28;20315;-71
2023/08/31 09:40:15;;;;;;;0.50;0.50;;;;;;;;;;10427281;28;20207;-71
2023/08/31 09:45:17;;;;;;;0.40;0.40;;;;;;;;;;10423733;28;20264;-69
2023/08/31 09:50:19;;;;;;;0.60;0.60;;;;;;;;;;10423563;28;20242;-70
2023/08/31 09:55:21;;;;;;;0.30;0.30;;;;;;;;;;10419895;28;20398;-74
2023/08/31 10:00:22;;;;;;;0.98;0.40;;;;;;;;;;10414721;28;20258;-72
2023/08/31 10:05:24;;;;;;;0.77;0.40;;;;;;;;;;10407688;28;20578;-69
2023/08/31 10:10:26;;;;;;;1.00;0.40;;;;;;;;;;10428916;28;20620;-69
2023/08/31 10:15:33;;;;;;;0.38;0.38;;;;;;;;;;10422208;28;20222;-71
2023/08/31 10:20:34;;;;;;;0.40;0.40;;;;;;;;;;10421589;28;20726;-70
2023/08/31 10:25:50;;;;;;;0.47;0.47;;;;;;;;;;10418510;28;20583;-70
2023/08/31 10:31:04;;;;;;;1.00;0.40;;;;;;;;;;10422428;28;20233;-68
2023/08/31 10:36:09;;;;;;;0.50;0.38;;;;;;;;;;10412982;28;20290;-73
2023/08/31 10:41:10;;;;;;;0.40;0.40;;;;;;;;;;10425459;28;20305;-71
2023/08/31 10:46:16;;;;;;;0.40;0.40;;;;;;;;;;10408065;28;20218;-71
2023/08/31 10:51:20;;;;;;;0.40;0.40;;;;;;;;;;10423837;28;20218;-71
2023/08/31 10:56:21;;;;;;;0.30;0.30;;;;;;;;;;10433876;28;20746;-70
2023/08/31 11:01:40;;;;;;;0.30;0.30;;;;;;;;;;10407549;28;20211;-70
2023/08/31 11:06:42;;;;;;;1.05;0.50;;;;;;;;;;10424353;28;20562;-70
2023/08/31 11:11:43;;;;;;;0.47;0.35;;;;;;;;;;10425149;28;20261;-70
2023/08/31 11:16:44;;;;;;;0.35;0.35;;;;;;;;;;10423484;28;20246;-70
2023/08/31 11:21:45;;;;;;;0.40;0.40;;;;;;;;;;10426544;28;20389;-68
2023/08/31 11:26:48;;;;;;;1.25;0.25;;;;;;;;;;10421683;28;20226;-71
2023/08/31 11:31:49;;;;;;;0.45;0.25;;;;;;;;;;10421548;28;20347;-69
2023/08/31 11:36:50;;;;;;;0.20;0.20;;;;;;;;;;10420433;28;20271;-71
2023/08/31 11:41:51;;;;;;;0.25;0.25;;;;;;;;;;10422468;28;20210;-68
2023/08/31 11:46:53;;;;;;;0.38;0.20;;;;;;;;;;10424855;28;20292;-70
2023/08/31 11:51:54;;;;;;;1.55;0.25;;;;;;;;;;10428177;28;20246;-70
2023/08/31 11:56:55;;;;;;;0.25;0.25;;;;;;;;;;10425708;28;20226;-68
2023/08/31 12:01:58;;;;;;;4.40;0.50;;;;;;;;;;10420865;28;20358;-71
2023/08/31 12:07:06;;;;;;;1.23;0.30;;;;;;;;;;10425167;28;20223;-71
2023/08/31 12:12:08;;;;;;;0.17;0.17;;;;;;;;;;10409849;28;20231;-68
2023/08/31 12:17:09;;;;;;;0.10;0.10;;;;;;;;;;10421666;28;20250;-68
2023/08/31 12:22:12;;;;;;;0.10;0.10;;;;;;;;;;10409458;28;20245;-72
2023/08/31 12:27:13;;;;;;;0.10;0.10;;;;;;;;;;10409973;28;20219;-71
2023/08/31 12:32:14;;;;;;;0.10;0.10;;;;;;;;;;10429526;28;20770;-70
2023/08/31 12:37:15;;;;;;;0.10;0.10;;;;;;;;;;10408533;28;20215;-70
2023/08/31 12:42:16;;;;;;;0.45;0.20;;;;;;;;;;10406128;28;20265;-71
2023/08/31 12:47:18;;;;;;;0.20;0.20;;;;;;;;;;10425026;28;20214;-68
2023/08/31 12:52:19;;;;;;;1.40;0.20;;;;;;;;;;10422314;28;20247;-71
2023/08/31 12:57:20;;;;;;;0.30;0.30;;;;;;;;;;10418819;28;20301;-70
2023/08/31 13:02:21;;;;;;;0.17;0.15;;;;;;;;;;10424015;28;20795;-69
2023/08/31 13:07:22;;;;;;;0.30;0.30;;;;;;;;;;10423742;28;20222;-70
2023/08/31 13:12:23;;;;;;;0.28;0.28;;;;;;;;;;10421870;28;20537;-69
2023/08/31 13:17:26;;;;;;;0.30;0.30;;;;;;;;;;10422839;28;20219;-69
2023/08/31 13:22:28;;;;;;;0.20;0.20;;;;;;;;;;10423575;28;20220;-67
2023/08/31 13:27:30;;;;;;;1.75;0.22;;;;;;;;;;10423854;28;20793;-68
2023/08/31 13:32:31;;;;;;;1.75;0.20;;;;;;;;;;10423768;28;20230;-69
2023/08/31 13:37:32;;;;;;;0.20;0.20;;;;;;;;;;10405580;28;20723;-71
2023/08/31 13:42:37;;;;;;;0.10;0.10;;;;;;;;;;10425709;28;20419;-69
2023/08/31 13:47:39;;;;;;;0.20;0.20;;;;;;;;;;10429967;28;20592;-69
2023/08/31 13:52:40;;;;;;;2.13;0.30;;;;;;;;;;10421942;28;20253;-71
2023/08/31 13:57:42;;;;;;;0.20;0.20;;;;;;;;;;10402496;28;20565;-68
2023/08/31 14:02:43;;;;;;;0.30;0.30;;;;;;;;;;10425423;28;20239;-68
2023/08/31 14:07:44;;;;;;;0.40;0.40;;;;;;;;;;10423397;28;20245;-69
2023/08/31 14:12:47;;;;;;;0.30;0.30;;;;;;;;;;10424278;28;20310;-69
2023/08/31 14:17:52;;;;;;;0.85;0.45;;;;;;;;;;10422736;28;20603;-71
2023/08/31 14:22:53;;;;;;;0.30;0.30;;;;;;;;;;10411860;28;20584;-71
2023/08/31 14:27:55;;;;;;;1.95;0.40;;;;;;;;;;10406336;28;20665;-74
2023/08/31 14:32:56;;;;;;;0.20;0.20;;;;;;;;;;10426456;28;20230;-72
2023/08/31 14:37:58;;;;;;;0.25;0.25;;;;;;;;;;10414756;28;20233;-71
2023/08/31 14:42:59;;;;;;;0.20;0.20;;;;;;;;;;10422611;28;20660;-70
2023/08/31 14:48:00;;;;;;;0.20;0.20;;;;;;;;;;10422587;28;20728;-72
2023/08/31 14:53:01;;;;;;;0.10;0.10;;;;;;;;;;10419802;28;20768;-70
2023/08/31 14:58:02;;;;;;;0.20;0.20;;;;;;;;;;10400281;28;20210;-72
2023/08/31 15:03:03;;;;;;;0.10;0.10;;;;;;;;;;10424768;28;20294;-70
2023/08/31 15:08:05;;;;;;;0.10;0.10;;;;;;;;;;10423296;28;20222;-73
2023/08/31 15:13:06;;;;;;;0.20;0.20;;;;;;;;;;10419215;28;20296;-71
2023/08/31 15:18:07;;;;;;;0.20;0.20;;;;;;;;;;10397279;28;20713;-72
2023/08/31 15:23:08;;;;;;;0.20;0.20;;;;;;;;;;10429311;28;20234;-71
2023/08/31 15:28:09;;;;;;;3.50;0.20;;;;;;;;;;10412949;28;20321;-69
2023/08/31 15:33:10;;;;;;;0.10;0.10;;;;;;;;;;10431510;28;20490;-71
2023/08/31 15:38:12;;;;;;;0.28;0.10;;;;;;;;;;10416688;28;20222;-73
2023/08/31 15:43:13;;;;;;;0.10;0.10;;;;;;;;;;10414708;28;20218;-70
2023/08/31 15:48:14;;;;;;;0.10;0.10;;;;;;;;;;10417022;28;20362;-75
2023/08/31 15:53:15;;;;;;;0.20;0.20;;;;;;;;;;10428570;28;20214;-69
2023/08/31 15:58:16;;;;;;;0.70;0.10;;;;;;;;;;10416004;28;20230;-74
2023/08/31 16:03:17;;;;;;;0.20;0.20;;;;;;;;;;10431477;28;20217;-69
2023/08/31 16:08:19;;;;;;;0.20;0.20;;;;;;;;;;10427956;28;20571;-72
2023/08/31 16:13:20;;;;;;;0.20;0.20;;;;;;;;;;10395040;28;20747;-72
2023/08/31 16:18:21;;;;;;;0.20;0.20;;;;;;;;;;10427119;28;20237;-71
2023/08/31 16:23:22;;;;;;;0.95;0.30;;;;;;;;;;10425704;28;20207;-70
2023/08/31 16:28:23;;;;;;;0.30;0.20;;;;;;;;;;10426739;28;20231;-70
2023/08/31 16:33:24;;;;;;;0.20;0.20;;;;;;;;;;10441627;28;20305;-69
2023/08/31 16:38:26;;;;;;;0.20;0.20;;;;;;;;;;10430095;28;20309;-72
2023/08/31 16:43:29;;;;;;;0.20;0.20;;;;;;;;;;10429667;28;20214;-72
2023/08/31 16:48:30;;;;;;;0.47;0.20;;;;;;;;;;10448373;28;20611;-72
2023/08/31 16:53:34;;;;;;;0.20;0.20;;;;;;;;;;10428925;28;20290;-69
2023/08/31 16:58:35;;;;;;;0.20;0.20;;;;;;;;;;10436239;28;20241;-73
2023/08/31 17:03:36;;;;;;;0.20;0.20;;;;;;;;;;10416704;28;20202;-72
2023/08/31 17:08:37;;;;;;;0.30;0.30;;;;;;;;;;10435044;28;20222;-71
2023/08/31 17:13:39;;;;;;;0.20;0.20;;;;;;;;;;10430901;28;20203;-70
2023/08/31 17:18:40;;;;;;;0.20;0.20;;;;;;;;;;10410997;28;20353;-73
2023/08/31 17:23:41;;;;;;;0.63;0.40;;;;;;;;;;10424954;28;20215;-71
2023/08/31 17:28:42;;;;;;;0.30;0.30;;;;;;;;;;10406088;28;20231;-73
2023/08/31 17:33:46;;;;;;;1.48;0.20;;;;;;;;;;10433096;28;20209;-70
2023/08/31 17:38:47;;;;;;;0.20;0.20;;;;;;;;;;10414722;28;20289;-70
2023/08/31 17:43:48;;;;;;;0.20;0.20;;;;;;;;;;10423547;28;20215;-72
2023/08/31 17:48:49;;;;;;;0.20;0.20;;;;;;;;;;10424036;28;20218;-69
2023/08/31 17:53:54;;;;;;;0.20;0.20;;;;;;;;;;10422363;28;20210;-72
2023/08/31 17:58:56;;;;;;;0.30;0.10;;;;;;;;;;10422465;28;20234;-72
2023/08/31 18:03:57;;;;;;;0.10;0.10;;;;;;;;;;10425163;28;20215;-71
2023/08/31 18:08:58;;;;;;;0.10;0.10;;;;;;;;;;10423554;28;20585;-71
2023/08/31 18:13:59;;;;;;;0.20;0.20;;;;;;;;;;10427845;28;20233;-68
2023/08/31 18:19:00;;;;;;;0.20;0.20;;;;;;;;;;10421902;28;20261;-70
2023/08/31 18:24:02;;;;;;;0.10;0.10;;;;;;;;;;10421911;28;20697;-72
2023/08/31 18:29:03;;;;;;;0.10;0.10;;;;;;;;;;10392468;28;20218;-68
2023/08/31 18:34:04;;;;;;;0.20;0.20;;;;;;;;;;10430132;28;20206;-74
2023/08/31 18:39:07;;;;;;;0.28;0.28;;;;;;;;;;10425747;28;20250;-68
2023/08/31 18:44:08;;;;;;;0.20;0.20;;;;;;;;;;10420730;28;20241;-68
2023/08/31 18:49:09;;;;;;;0.10;0.10;;;;;;;;;;10421467;28;20219;-69
2023/08/31 18:54:10;;;;;;;0.10;0.10;;;;;;;;;;10424306;28;20244;-73
2023/08/31 18:59:11;;;;;;;0.15;0.15;;;;;;;;;;10414639;28;20218;-72
2023/08/31 19:04:12;;;;;;;0.20;0.20;;;;;;;;;;10403993;28;20452;-70
2023/08/31 19:09:14;;;;;;;0.30;0.30;;;;;;;;;;10423218;28;20218;-68
2023/08/31 19:14:15;;;;;;;0.15;0.15;;;;;;;;;;10420063;28;20221;-72
2023/08/31 19:19:16;;;;;;;1.45;0.30;;;;;;;;;;10410730;28;20531;-74
2023/08/31 19:24:17;;;;;;;0.25;0.25;;;;;;;;;;10420384;28;20219;-69
2023/08/31 19:29:18;;;;;;;0.75;0.30;;;;;;;;;;10421782;28;20229;-74
2023/08/31 19:34:19;;;;;;;0.22;0.22;;;;;;;;;;10401564;28;20215;-70
2023/08/31 19:39:23;;;;;;;1.48;0.22;;;;;;;;;;10403914;28;20774;-72
2023/08/31 19:44:25;;;;;;;0.30;0.30;;;;;;;;;;10410976;28;20641;-67
2023/08/31 19:49:26;;;;;;;0.47;0.47;;;;;;;;;;10419177;28;20755;-67
2023/08/31 19:54:27;;;;;;;0.20;0.20;;;;;;;;;;10423568;28;20199;-68
2023/08/31 19:59:28;;;;;;;1.05;0.55;;;;;;;;;;10415734;28;20221;-70
2023/08/31 20:04:29;;;;;;;0.32;0.32;;;;;;;;;;10422300;28;20214;-70
2023/08/31 20:09:30;;;;;;;0.30;0.30;;;;;;;;;;10432118;28;20685;-69
2023/08/31 20:14:31;;;;;;;0.35;0.35;;;;;;;;;;10426641;28;20241;-68
2023/08/31 20:19:32;;;;;;;0.73;0.63;;;;;;;;;;10427749;28;20774;-67
2023/08/31 20:24:33;;;;;;;0.25;0.25;;;;;;;;;;10425665;28;20207;-68
2023/08/31 20:29:35;;;;;;;0.43;0.43;;;;;;;;;;10426084;28;20207;-72
2023/08/31 20:34:36;;;;;;;0.68;0.63;;;;;;;;;;10427520;28;20489;-69
2023/08/31 20:39:39;;;;;;;0.57;0.45;;;;;;;;;;10427245;28;20289;-70
2023/08/31 20:44:40;;;;;;;1.05;0.65;;;;;;;;;;10424212;28;20227;-68
2023/08/31 20:49:42;;;;;;;0.50;0.50;;;;;;;;;;10426536;28;20206;-67
2023/08/31 20:54:43;;;;;;;0.50;0.50;;;;;;;;;;10415641;28;20744;-69
2023/08/31 20:59:47;;;;;;;0.50;0.50;;;;;;;;;;10413646;28;20211;-67
2023/08/31 21:04:48;;;;;;;0.68;0.68;;;;;;;;;;10426848;28;20215;-69
2023/08/31 21:09:50;;;;;;;0.60;0.60;;;;;;;;;;10420950;28;20214;-71
2023/08/31 21:14:51;;;;;;;0.47;0.47;;;;;;;;;;10421319;28;20772;-71
2023/08/31 21:19:52;;;;;;;1.33;0.47;;;;;;;;;;10418996;28;20218;-70
2023/08/31 21:24:53;;;;;;;0.60;0.60;;;;;;;;;;10419029;28;20791;-69
2023/08/31 21:29:54;;;;;;;0.43;0.43;;;;;;;;;;10419936;28;20226;-70
2023/08/31 21:34:55;;;;;;;1.33;0.60;;;;;;;;;;10424254;28;20236;-69
2023/08/31 21:39:56;;;;;;;0.40;0.40;;;;;;;;;;10405909;28;20218;-69
2023/08/31 21:44:59;;;;;;;0.60;0.60;;;;;;;;;;10420712;28;20215;-69
2023/08/31 21:50:01;;;;;;;1.38;0.93;;;;;;;;;;10412989;28;20740;-67
2023/08/31 21:55:02;;;;;;;0.50;0.50;;;;;;;;;;10420811;28;20693;-73
2023/08/31 22:00:04;;;;;;;0.73;0.73;;;;;;;;;;10420977;28;20585;-69
2023/08/31 22:05:08;;;;;;;0.90;0.90;;;;;;;;;;10422426;28;20218;-68
2023/08/31 22:10:10;;;;;;;1.02;1.02;;;;;;;;;;10426049;28;20218;-70
2023/08/31 22:15:16;;;;;;;0.90;0.90;;;;;;;;;;10427650;28;20227;-68
2023/08/31 22:20:19;;;;;;;0.98;0.77;;;;;;;;;;10427683;28;20207;-72
2023/08/31 22:25:21;;;;;;;0.63;0.63;;;;;;;;;;10422803;28;20187;-70
2023/08/31 22:30:22;;;;;;;3.55;1.00;;;;;;;;;;10421258;28;20294;-68
2023/08/31 22:35:23;;;;;;;1.30;0.80;;;;;;;;;;10401891;28;20217;-69
2023/08/31 22:40:24;;;;;;;1.10;1.00;;;;;;;;;;10418689;28;20207;-68
2023/08/31 22:45:25;;;;;;;1.02;0.98;;;;;;;;;;10408049;28;20214;-70
2023/08/31 22:50:26;;;;;;;2.15;0.98;;;;;;;;;;10418114;28;20876;-67
2023/08/31 22:55:29;;;;;;;0.80;0.80;;;;;;;;;;10421057;28;20214;-71
2023/08/31 23:00:30;;;;;;;1.38;1.13;;;;;;;;;;10424652;28;20694;-71
2023/08/31 23:05:31;;;;;;;1.05;1.05;;;;;;;;;;10417617;28;20223;-73
2023/08/31 23:10:32;;;;;;;1.10;1.10;;;;;;;;;;10413768;28;20230;-67
2023/08/31 23:15:36;;;;;;;1.13;1.02;;;;;;;;;;10414633;28;20214;-69
2023/08/31 23:20:37;;;;;;;1.10;1.10;;;;;;;;;;10418245;28;20249;-69
2023/08/31 23:25:38;;;;;;;0.82;0.82;;;;;;;;;;10417729;28;20293;-70
2023/08/31 23:30:39;;;;;;;1.23;1.02;;;;;;;;;;10404782;28;20246;-70
2023/08/31 23:35:40;;;;;;;0.93;0.93;;;;;;;;;;10416348;28;20601;-69
2023/08/31 23:40:43;;;;;;;1.55;1.55;;;;;;;;;;10399025;28;20676;-72
2023/08/31 23:45:44;;;;;;;1.60;1.45;;;;;;;;;;10442230;28;20661;-70
2023/08/31 23:50:45;;;;;;;1.38;1.38;;;;;;;;;;10427322;28;20226;-69
2023/08/31 23:55:48;;;;;;;1.10;1.10;;;;;;;;;;10429250;28;20208;-69
